createdAt,value
2019-05-07T00:02:07.566Z,22.27
2019-05-07T00:04:38.275Z,26.33
2019-05-07T00:07:09.285Z,24.00
2019-05-07T00:09:39.897Z,28.03
2019-05-07T00:12:12.417Z,25.53
2019-05-07T00:14:44.329Z,30.13
2019-05-07T00:17:14.767Z,24.93
2019-05-07T00:19:45.353Z,30.33
2019-05-07T00:22:16.008Z,31.73
2019-05-07T00:24:46.545Z,31.07
2019-05-07T00:27:17.258Z,30.33
2019-05-07T00:29:47.859Z,30.73
2019-05-07T00:32:18.428Z,27.77
2019-05-07T00:34:54.283Z,25.67
2019-05-07T00:37:45.006Z,30.30
2019-05-07T00:40:32.232Z,33.87
2019-05-07T00:43:07.649Z,33.20
2019-05-07T00:45:49.523Z,28.90
2019-05-07T00:48:20.058Z,21.63
2019-05-07T00:50:53.603Z,23.83
2019-05-07T00:53:24.204Z,22.90
2019-05-07T00:55:55.724Z,21.17
2019-05-07T00:58:27.003Z,22.70
2019-05-07T01:00:57.661Z,21.97
2019-05-07T01:03:32.833Z,21.17
2019-05-07T01:06:03.453Z,23.03
2019-05-07T01:08:34.083Z,22.93
2019-05-07T01:11:06.487Z,21.10
2019-05-07T01:13:37.355Z,19.93
2019-05-07T01:16:09.040Z,18.60
2019-05-07T01:18:41.910Z,26.53
2019-05-07T01:21:13.244Z,21.23
2019-05-07T01:23:44.020Z,22.57
2019-05-07T01:26:14.611Z,20.23
2019-05-07T01:29:03.037Z,19.87
2019-05-07T01:31:43.141Z,27.43
2019-05-07T01:34:42.963Z,25.00
2019-05-07T01:37:14.722Z,31.27
2019-05-07T01:39:45.243Z,33.73
2019-05-07T01:42:15.893Z,27.50
2019-05-07T01:44:46.497Z,28.17
2019-05-07T01:47:17.041Z,28.33
2019-05-07T01:49:47.672Z,27.03
2019-05-07T01:52:18.212Z,25.90
2019-05-07T01:54:48.809Z,25.17
2019-05-07T01:57:19.381Z,28.53
2019-05-07T01:59:52.595Z,28.63
2019-05-07T02:02:28.763Z,26.20
2019-05-07T02:05:18.195Z,27.30
2019-05-07T02:07:53.742Z,29.13
2019-05-07T02:10:43.192Z,21.83
2019-05-07T02:13:13.808Z,23.70
2019-05-07T02:15:57.446Z,23.63
2019-05-07T02:18:16.406Z,22.23
2019-05-07T02:20:46.990Z,24.03
2019-05-07T02:23:17.523Z,21.17
2019-05-07T02:25:48.670Z,26.80
2019-05-07T02:28:22.181Z,25.00
2019-05-07T02:30:53.519Z,18.73
2019-05-07T02:33:24.300Z,21.73
2019-05-07T02:35:54.909Z,23.50
2019-05-07T02:38:44.462Z,20.53
2019-05-07T02:41:18.860Z,19.53
2019-05-07T02:43:53.519Z,20.27
2019-05-07T02:46:45.018Z,24.63
2019-05-07T02:49:32.711Z,27.10
2019-05-07T02:52:09.948Z,18.83
2019-05-07T02:55:03.516Z,22.60
2019-05-07T02:57:34.323Z,22.40
2019-05-07T03:00:06.133Z,25.57
2019-05-07T03:02:36.768Z,20.83
2019-05-07T03:05:07.322Z,20.30
2019-05-07T03:07:37.762Z,20.83
2019-05-07T03:10:09.628Z,21.50
2019-05-07T03:12:42.740Z,27.77
2019-05-07T03:15:13.261Z,24.10
2019-05-07T03:17:43.967Z,20.93
2019-05-07T03:20:22.914Z,26.17
2019-05-07T03:22:53.964Z,24.50
2019-05-07T03:25:33.815Z,25.87
2019-05-07T03:28:04.656Z,25.70
2019-05-07T03:30:56.638Z,22.77
2019-05-07T03:33:37.204Z,21.13
2019-05-07T03:36:08.277Z,18.57
2019-05-07T03:38:38.837Z,23.20
2019-05-07T03:41:09.412Z,23.57
2019-05-07T03:43:39.962Z,20.93
2019-05-07T03:46:15.783Z,20.07
2019-05-07T03:48:48.013Z,25.20
2019-05-07T03:51:18.575Z,20.97
2019-05-07T03:53:49.187Z,27.07
2019-05-07T03:56:19.719Z,23.13
2019-05-07T03:58:52.687Z,18.83
2019-05-07T04:01:23.982Z,18.47
2019-05-07T04:03:54.795Z,19.53
2019-05-07T04:06:25.320Z,15.67
2019-05-07T04:08:55.916Z,21.97
2019-05-07T04:11:26.458Z,24.10
2019-05-07T04:13:56.991Z,27.03
2019-05-07T04:16:27.486Z,21.03
2019-05-07T04:18:58.489Z,24.30
2019-05-07T04:21:28.997Z,22.63
2019-05-07T04:24:15.474Z,22.50
2019-05-07T04:26:53.676Z,27.20
2019-05-07T04:29:23.783Z,19.60
2019-05-07T04:31:55.542Z,22.50
2019-05-07T04:34:44.374Z,21.37
2019-05-07T04:37:16.502Z,18.37
2019-05-07T04:39:53.826Z,20.33
2019-05-07T04:42:24.787Z,21.00
2019-05-07T04:44:55.456Z,22.77
2019-05-07T04:47:38.010Z,19.60
2019-05-07T04:49:58.244Z,23.37
2019-05-07T04:52:35.356Z,27.33
2019-05-07T04:55:07.255Z,29.47
2019-05-07T04:57:37.879Z,30.83
2019-05-07T05:00:09.833Z,34.50
2019-05-07T05:02:59.337Z,29.97
2019-05-07T05:05:33.130Z,28.63
2019-05-07T05:08:05.000Z,31.57
2019-05-07T05:10:35.552Z,23.40
2019-05-07T05:13:06.199Z,23.63
2019-05-07T05:15:36.786Z,27.90
2019-05-07T05:18:07.342Z,25.23
2019-05-07T05:20:58.570Z,23.43
2019-05-07T05:23:48.084Z,21.33
2019-05-07T05:26:18.692Z,18.20
2019-05-07T05:28:49.228Z,15.03
2019-05-07T05:31:22.136Z,18.37
2019-05-07T05:33:52.641Z,16.40
2019-05-07T05:36:23.486Z,19.27
2019-05-07T05:38:53.968Z,15.40
2019-05-07T05:41:26.172Z,15.70
2019-05-07T05:44:17.476Z,17.00
2019-05-07T05:46:48.019Z,22.83
2019-05-07T05:49:18.464Z,17.53
2019-05-07T05:51:54.911Z,14.97
2019-05-07T05:54:33.321Z,13.77
2019-05-07T05:57:19.983Z,16.47
2019-05-07T06:00:12.661Z,16.47
2019-05-07T06:03:02.541Z,18.03
2019-05-07T06:05:59.158Z,14.30
2019-05-07T06:08:48.577Z,17.23
2019-05-07T06:11:38.140Z,18.87
2019-05-07T06:14:26.279Z,15.47
2019-05-07T06:17:06.414Z,14.90
2019-05-07T06:19:48.596Z,11.87
2019-05-07T06:22:44.088Z,14.43
2019-05-07T06:25:24.331Z,13.43
2019-05-07T06:27:52.660Z,16.50
2019-05-07T06:30:24.343Z,15.73
2019-05-07T06:32:55.245Z,12.47
2019-05-07T06:35:25.794Z,9.97
2019-05-07T06:37:56.473Z,11.80
2019-05-07T06:40:45.849Z,13.37
2019-05-07T06:43:25.173Z,11.53
2019-05-07T06:45:57.439Z,15.70
2019-05-07T06:48:38.829Z,15.13
2019-05-07T06:51:02.902Z,9.97
2019-05-07T06:53:33.745Z,11.90
2019-05-07T06:56:06.092Z,9.77
2019-05-07T06:58:55.462Z,14.30
2019-05-07T07:01:42.298Z,10.70
2019-05-07T07:04:19.820Z,10.77
2019-05-07T07:07:26.152Z,9.00
2019-05-07T07:10:12.636Z,7.80
2019-05-07T07:12:46.869Z,12.97
2019-05-07T07:15:17.537Z,10.53
2019-05-07T07:17:48.029Z,11.30
2019-05-07T07:20:19.115Z,10.17
2019-05-07T07:22:51.959Z,15.30
2019-05-07T07:25:22.912Z,11.57
2019-05-07T07:27:54.858Z,10.27
2019-05-07T07:30:47.459Z,12.00
2019-05-07T07:33:18.672Z,11.67
2019-05-07T07:35:49.111Z,15.93
2019-05-07T07:38:35.910Z,15.47
2019-05-07T07:41:22.224Z,13.77
2019-05-07T07:43:52.765Z,11.37
2019-05-07T07:46:23.495Z,14.80
2019-05-07T07:49:06.595Z,13.47
2019-05-07T07:51:37.814Z,13.97
2019-05-07T07:53:58.459Z,14.67
2019-05-07T07:56:52.263Z,14.97
2019-05-07T07:59:48.262Z,13.73
2019-05-07T08:02:23.229Z,18.27
2019-05-07T08:04:54.739Z,18.10
2019-05-07T08:07:26.341Z,18.13
2019-05-07T08:09:56.819Z,14.67
2019-05-07T08:12:27.417Z,18.47
2019-05-07T08:15:13.607Z,13.47
2019-05-07T08:17:32.510Z,15.30
2019-05-07T08:20:02.634Z,13.10
2019-05-07T08:22:34.156Z,14.57
2019-05-07T08:25:05.412Z,14.40
2019-05-07T08:27:36.106Z,15.03
2019-05-07T08:30:08.016Z,18.80
2019-05-07T08:33:02.183Z,14.67
2019-05-07T08:35:42.456Z,13.90
2019-05-07T08:38:13.022Z,15.13
2019-05-07T08:40:43.576Z,14.80
2019-05-07T08:43:14.200Z,12.80
2019-05-07T08:46:02.707Z,11.53
2019-05-07T08:48:38.766Z,13.80
2019-05-07T08:51:09.323Z,15.00
2019-05-07T08:53:39.808Z,12.07
2019-05-07T08:56:12.310Z,10.57
2019-05-07T08:58:42.426Z,17.27
2019-05-07T09:01:12.940Z,13.00
2019-05-07T09:03:43.566Z,15.60
2019-05-07T09:06:15.518Z,13.87
2019-05-07T09:08:54.833Z,13.70
2019-05-07T09:11:25.304Z,14.67
2019-05-07T09:13:55.794Z,14.40
2019-05-07T09:16:26.360Z,20.70
2019-05-07T09:18:56.762Z,17.60
2019-05-07T09:21:27.311Z,12.37
2019-05-07T09:23:57.820Z,12.57
2019-05-07T09:26:35.415Z,23.33
2019-05-07T09:29:27.964Z,12.63
2019-05-07T09:32:22.805Z,17.57
2019-05-07T09:34:53.532Z,28.07
2019-05-07T09:37:26.805Z,13.07
2019-05-07T09:39:57.410Z,14.20
2019-05-07T09:42:28.035Z,10.93
2019-05-07T09:44:58.513Z,9.23
2019-05-07T09:47:29.027Z,12.50
2019-05-07T09:50:04.556Z,9.37
2019-05-07T09:52:33.077Z,10.83
2019-05-07T09:55:13.809Z,13.07
2019-05-07T09:57:35.821Z,10.57
2019-05-07T10:00:08.485Z,10.73
2019-05-07T10:02:39.275Z,19.97
2019-05-07T10:05:10.119Z,8.53
2019-05-07T10:07:42.351Z,12.00
2019-05-07T10:10:13.702Z,8.83
2019-05-07T10:12:53.703Z,11.13
2019-05-07T10:15:25.257Z,8.97
2019-05-07T10:18:01.918Z,9.13
2019-05-07T10:20:32.875Z,10.47
2019-05-07T10:23:03.545Z,10.33
2019-05-07T10:25:43.211Z,12.30
2019-05-07T10:28:13.869Z,14.00
2019-05-07T10:30:44.489Z,21.53
2019-05-07T10:33:15.115Z,39.53
2019-05-07T10:35:46.005Z,10.77
2019-05-07T10:38:16.677Z,13.60
2019-05-07T10:40:47.345Z,12.77
2019-05-07T10:43:17.908Z,11.90
2019-05-07T10:46:13.429Z,15.87
2019-05-07T10:49:05.871Z,11.97
2019-05-07T10:51:36.449Z,8.27
2019-05-07T10:54:06.972Z,7.27
2019-05-07T10:56:38.287Z,11.20
2019-05-07T10:59:08.775Z,6.83
2019-05-07T11:02:04.275Z,6.70
2019-05-07T11:04:42.576Z,10.73
2019-05-07T11:07:06.993Z,8.03
2019-05-07T11:09:37.593Z,6.67
2019-05-07T11:12:08.132Z,7.93
2019-05-07T11:14:38.601Z,5.57
2019-05-07T11:17:27.132Z,6.83
2019-05-07T11:19:57.598Z,7.10
2019-05-07T11:22:28.165Z,6.97
2019-05-07T11:24:58.659Z,6.43
2019-05-07T11:27:29.257Z,6.73
2019-05-07T11:29:59.737Z,6.87
2019-05-07T11:32:32.021Z,10.63
2019-05-07T11:35:03.274Z,8.03
2019-05-07T11:37:33.803Z,8.37
2019-05-07T11:40:04.336Z,7.00
2019-05-07T11:43:06.087Z,14.17
2019-05-07T11:45:48.067Z,6.57
2019-05-07T11:48:19.055Z,8.77
2019-05-07T11:51:08.176Z,10.03
2019-05-07T11:53:41.913Z,7.47
2019-05-07T11:56:12.492Z,9.73
2019-05-07T11:58:46.075Z,10.27
2019-05-07T12:01:18.950Z,8.53
2019-05-07T12:03:49.485Z,7.60
2019-05-07T12:06:21.646Z,10.93
2019-05-07T12:08:52.383Z,10.90
2019-05-07T12:11:24.138Z,11.30
2019-05-07T12:13:57.267Z,11.53
2019-05-07T12:16:26.943Z,11.40
2019-05-07T12:18:57.401Z,9.40
2019-05-07T12:21:28.045Z,11.37
2019-05-07T12:23:58.635Z,11.40
2019-05-07T12:26:32.167Z,9.30
2019-05-07T12:29:02.697Z,12.50
2019-05-07T12:32:02.680Z,9.33
2019-05-07T12:34:37.227Z,9.10
2019-05-07T12:37:07.718Z,8.70
2019-05-07T12:39:38.153Z,10.27
2019-05-07T12:42:08.893Z,10.77
2019-05-07T12:44:39.429Z,11.27
2019-05-07T12:47:11.903Z,9.47
2019-05-07T12:49:42.863Z,6.93
2019-05-07T12:52:27.036Z,9.67
2019-05-07T12:55:19.666Z,9.20
2019-05-07T12:57:51.865Z,10.13
2019-05-07T13:00:42.555Z,14.17
2019-05-07T13:03:22.068Z,8.70
2019-05-07T13:05:52.762Z,9.70
2019-05-07T13:08:23.613Z,9.90
2019-05-07T13:10:55.167Z,8.63
2019-05-07T13:13:25.723Z,9.10
2019-05-07T13:15:56.263Z,10.40
2019-05-07T13:18:26.736Z,7.43
2019-05-07T13:20:57.237Z,12.13
2019-05-07T13:23:27.809Z,11.00
2019-05-07T13:25:58.709Z,15.50
2019-05-07T13:28:29.238Z,9.93
2019-05-07T13:31:02.187Z,9.93
2019-05-07T13:33:34.636Z,12.90
2019-05-07T13:36:05.685Z,14.07
2019-05-07T13:39:04.338Z,16.30
2019-05-07T13:41:58.340Z,14.37
2019-05-07T13:44:53.848Z,15.47
2019-05-07T13:47:26.896Z,14.00
2019-05-07T13:49:57.893Z,11.53
2019-05-07T13:52:28.368Z,8.97
2019-05-07T13:54:58.818Z,13.70
2019-05-07T13:57:29.296Z,10.80
2019-05-07T14:00:04.695Z,12.33
2019-05-07T14:02:33.537Z,10.77
2019-05-07T14:05:04.500Z,11.50
2019-05-07T14:07:36.672Z,11.13
2019-05-07T14:10:07.604Z,15.03
2019-05-07T14:12:38.385Z,11.87
2019-05-07T14:15:08.981Z,11.03
2019-05-07T14:17:40.304Z,11.80
2019-05-07T14:20:12.961Z,11.83
2019-05-07T14:22:43.355Z,15.13
2019-05-07T14:25:13.928Z,16.53
2019-05-07T14:27:44.565Z,21.50
2019-05-07T14:30:15.289Z,18.20
2019-05-07T14:32:52.586Z,14.97
2019-05-07T14:35:44.495Z,16.67
2019-05-07T14:38:20.164Z,11.47
2019-05-07T14:40:51.985Z,10.80
2019-05-07T14:43:29.278Z,10.80
2019-05-07T14:45:59.739Z,22.63
2019-05-07T14:48:30.312Z,31.60
2019-05-07T14:51:02.213Z,22.67
2019-05-07T14:53:35.300Z,22.97
2019-05-07T14:56:07.262Z,24.47
2019-05-07T14:58:37.788Z,18.90
2019-05-07T15:01:08.902Z,17.33
2019-05-07T15:03:39.464Z,18.03
2019-05-07T15:06:09.991Z,14.97
2019-05-07T15:08:42.735Z,19.77
2019-05-07T15:11:12.984Z,21.07
2019-05-07T15:13:43.448Z,15.20
2019-05-07T15:16:14.415Z,21.17
2019-05-07T15:18:53.096Z,16.63
2019-05-07T15:21:24.904Z,19.03
2019-05-07T15:23:56.721Z,22.43
2019-05-07T15:26:27.284Z,19.23
2019-05-07T15:29:08.526Z,14.57
2019-05-07T15:32:16.522Z,15.30
2019-05-07T15:34:47.053Z,15.83
2019-05-07T15:37:17.618Z,15.30
2019-05-07T15:39:48.076Z,19.80
2019-05-07T15:42:18.552Z,23.50
2019-05-07T15:44:48.983Z,19.00
2019-05-07T15:47:24.693Z,17.07
2019-05-07T15:49:55.263Z,23.77
2019-05-07T15:52:51.484Z,27.73
2019-05-07T15:55:16.978Z,27.47
2019-05-07T15:57:48.129Z,19.40
2019-05-07T16:00:21.654Z,19.50
2019-05-07T16:02:56.082Z,23.20
2019-05-07T16:05:26.535Z,21.20
2019-05-07T16:07:57.036Z,17.97
2019-05-07T16:10:27.912Z,22.00
2019-05-07T16:12:58.498Z,18.97
2019-05-07T16:15:28.995Z,18.50
2019-05-07T16:18:03.397Z,18.77
2019-05-07T16:20:33.983Z,20.70
2019-05-07T16:23:14.854Z,17.90
2019-05-07T16:25:38.361Z,21.17
2019-05-07T16:28:09.762Z,25.97
2019-05-07T16:30:42.344Z,22.23
2019-05-07T16:33:12.922Z,23.40
2019-05-07T16:35:44.983Z,23.73
2019-05-07T16:38:17.963Z,24.43
2019-05-07T16:40:47.692Z,25.40
2019-05-07T16:43:18.253Z,21.43
2019-05-07T16:45:48.826Z,21.47
2019-05-07T16:48:19.344Z,25.53
2019-05-07T16:50:52.107Z,25.30
2019-05-07T16:53:29.355Z,25.30
2019-05-07T16:55:56.059Z,26.67
2019-05-07T16:58:35.034Z,28.23
2019-05-07T17:01:07.335Z,29.00
2019-05-07T17:03:43.158Z,34.90
2019-05-07T17:06:13.761Z,40.93
2019-05-07T17:08:57.926Z,31.83
2019-05-07T17:11:28.533Z,36.07
2019-05-07T17:13:59.130Z,31.30
2019-05-07T17:16:31.576Z,29.93
2019-05-07T17:19:02.665Z,34.00
2019-05-07T17:21:33.420Z,40.30
2019-05-07T17:24:04.026Z,38.33
2019-05-07T17:26:34.636Z,45.83
2019-05-07T17:29:05.481Z,47.87
2019-05-07T17:31:35.864Z,40.23
2019-05-07T17:34:06.433Z,36.73
2019-05-07T17:36:36.966Z,27.13
2019-05-07T17:39:09.325Z,25.83
2019-05-07T17:41:40.072Z,27.50
2019-05-07T17:44:11.929Z,22.90
2019-05-07T17:46:43.756Z,21.90
2019-05-07T17:49:15.013Z,23.50
2019-05-07T17:51:45.786Z,20.87
2019-05-07T17:54:17.452Z,23.80
2019-05-07T17:56:47.928Z,23.87
2019-05-07T17:59:18.402Z,25.70
2019-05-07T18:02:07.730Z,22.47
2019-05-07T18:04:50.449Z,20.37
2019-05-07T18:07:13.078Z,21.40
2019-05-07T18:09:43.764Z,20.27
2019-05-07T18:12:14.327Z,24.17
2019-05-07T18:14:44.881Z,24.47
2019-05-07T18:17:46.625Z,27.00
2019-05-07T18:20:17.188Z,23.57
2019-05-07T18:22:47.743Z,29.87
2019-05-07T18:25:18.263Z,30.30
2019-05-07T18:27:48.756Z,35.97
2019-05-07T18:30:19.387Z,32.03
2019-05-07T18:32:55.304Z,29.50
2019-05-07T18:35:25.865Z,29.80
2019-05-07T18:37:56.563Z,27.20
2019-05-07T18:40:27.019Z,26.97
2019-05-07T18:42:57.618Z,27.73
2019-05-07T18:45:28.046Z,26.43
2019-05-07T18:47:58.602Z,27.43
2019-05-07T18:50:29.062Z,27.47
2019-05-07T18:52:59.573Z,29.43
2019-05-07T18:55:30.024Z,26.77
2019-05-07T18:58:02.605Z,27.37
2019-05-07T19:00:36.271Z,24.20
2019-05-07T19:03:06.893Z,28.73
2019-05-07T19:05:37.288Z,30.03
2019-05-07T19:08:08.798Z,38.03
2019-05-07T19:10:39.626Z,47.60
2019-05-07T19:13:10.176Z,56.57
2019-05-07T19:15:42.005Z,65.23
2019-05-07T19:18:12.733Z,46.07
2019-05-07T19:20:43.226Z,36.43
2019-05-07T19:23:13.705Z,38.73
2019-05-07T19:25:44.224Z,46.73
2019-05-07T19:28:16.068Z,56.83
2019-05-07T19:30:46.618Z,43.97
2019-05-07T19:33:17.070Z,42.87
2019-05-07T19:35:47.754Z,36.60
2019-05-07T19:38:19.783Z,35.90
2019-05-07T19:40:52.582Z,37.27
2019-05-07T19:43:22.480Z,39.90
2019-05-07T19:45:52.948Z,40.60
2019-05-07T19:48:23.502Z,40.53
2019-05-07T19:50:54.106Z,42.70
2019-05-07T19:53:24.709Z,42.27
2019-05-07T19:56:17.295Z,36.43
2019-05-07T19:58:52.445Z,42.17
2019-05-07T20:01:27.227Z,42.83
2019-05-07T20:03:57.854Z,44.97
2019-05-07T20:06:28.460Z,46.03
2019-05-07T20:09:09.918Z,46.90
2019-05-07T20:11:37.712Z,52.37
2019-05-07T20:14:08.247Z,48.60
2019-05-07T20:16:38.856Z,53.10
2019-05-07T20:19:09.372Z,53.07
2019-05-07T20:21:39.790Z,47.00
2019-05-07T20:24:12.271Z,47.80
2019-05-07T20:26:43.174Z,51.53
2019-05-07T20:29:14.960Z,54.77
2019-05-07T20:31:45.643Z,56.47
2019-05-07T20:34:16.132Z,60.87
2019-05-07T20:36:46.763Z,55.93
2019-05-07T20:39:17.293Z,47.33
2019-05-07T20:41:47.792Z,50.07
2019-05-07T20:44:18.535Z,61.27
2019-05-07T20:46:49.057Z,54.90
2019-05-07T20:49:19.566Z,68.40
2019-05-07T20:51:52.496Z,59.73
2019-05-07T20:54:39.013Z,69.73
2019-05-07T20:57:28.466Z,69.63
2019-05-07T21:00:02.635Z,78.00
2019-05-07T21:02:44.887Z,79.93
2019-05-07T21:05:06.908Z,71.97
2019-05-07T21:07:37.560Z,65.77
2019-05-07T21:10:12.622Z,68.47
2019-05-07T21:12:43.431Z,69.53
2019-05-07T21:15:13.928Z,60.97
2019-05-07T21:17:44.577Z,65.87
2019-05-07T21:20:15.287Z,65.23
2019-05-07T21:22:45.912Z,65.93
2019-05-07T21:25:16.368Z,72.20
2019-05-07T21:27:47.071Z,85.30
2019-05-07T21:30:22.325Z,78.33
2019-05-07T21:32:53.094Z,99.70
2019-05-07T21:35:24.181Z,112.90
2019-05-07T21:37:57.059Z,168.07
2019-05-07T21:40:29.305Z,154.93
2019-05-07T21:43:01.674Z,157.17
2019-05-07T21:45:32.716Z,160.30
2019-05-07T21:48:04.138Z,166.77
2019-05-07T21:50:37.283Z,164.67
2019-05-07T21:53:14.514Z,167.23
2019-05-07T21:56:07.080Z,172.53
2019-05-07T21:58:43.813Z,182.77
2019-05-07T22:01:35.628Z,185.20
2019-05-07T22:04:08.684Z,183.37
2019-05-07T22:06:42.876Z,175.27
2019-05-07T22:09:14.398Z,158.53
2019-05-07T22:11:46.038Z,149.63
2019-05-07T22:14:16.639Z,139.33
2019-05-07T22:16:47.364Z,126.27
2019-05-07T22:19:19.573Z,120.53
2019-05-07T22:21:52.340Z,112.00
2019-05-07T22:24:24.830Z,102.00
2019-05-07T22:26:55.447Z,108.33
2019-05-07T22:29:26.017Z,109.47
2019-05-07T22:32:14.284Z,97.53
2019-05-07T22:34:58.734Z,93.60
2019-05-07T22:37:32.405Z,95.03
2019-05-07T22:40:12.180Z,92.93
2019-05-07T22:42:44.406Z,104.90
2019-05-07T22:45:15.391Z,103.40
2019-05-07T22:47:45.950Z,103.23
2019-05-07T22:50:16.631Z,103.50
2019-05-07T22:52:47.228Z,104.93
2019-05-07T22:55:17.762Z,102.57
2019-05-07T22:58:05.559Z,88.67
2019-05-07T23:00:46.498Z,92.10
2019-05-07T23:03:17.071Z,87.47
2019-05-07T23:05:47.713Z,94.30
2019-05-07T23:08:18.293Z,89.83
2019-05-07T23:10:48.823Z,95.40
2019-05-07T23:13:19.393Z,95.90
2019-05-07T23:15:51.647Z,95.53
2019-05-07T23:18:22.692Z,97.53
2019-05-07T23:20:53.291Z,85.57
2019-05-07T23:23:23.841Z,93.80
2019-05-07T23:25:55.930Z,96.07
2019-05-07T23:28:27.873Z,99.33
2019-05-07T23:30:58.544Z,99.73
2019-05-07T23:33:29.167Z,84.33
2019-05-07T23:36:02.058Z,84.13
2019-05-07T23:38:32.068Z,82.43
2019-05-07T23:41:22.269Z,88.43
2019-05-07T23:44:12.488Z,87.20
2019-05-07T23:46:45.011Z,91.33
2019-05-07T23:49:17.193Z,83.00
2019-05-07T23:51:47.791Z,87.53
2019-05-07T23:54:18.324Z,92.93
2019-05-07T23:57:02.839Z,81.07
2019-05-07T23:59:22.175Z,82.23
